sensor_id;sensor_type;location;lat;lon;timestamp;temperature;humidity
25352;DHT22;13304;48.464;8.712;2023-05-07T00:00:37;16.80;73.00
25352;DHT22;13304;48.464;8.712;2023-05-07T00:03:03;16.80;73.00
25352;DHT22;13304;48.464;8.712;2023-05-07T00:05:29;16.70;73.00
25352;DHT22;13304;48.464;8.712;2023-05-07T00:07:55;16.80;73.10
25352;DHT22;13304;48.464;8.712;2023-05-07T00:10:20;16.80;73.20
25352;DHT22;13304;48.464;8.712;2023-05-07T00:12:46;16.70;73.00
25352;DHT22;13304;48.464;8.712;2023-05-07T00:15:12;16.70;73.10
25352;DHT22;13304;48.464;8.712;2023-05-07T00:17:38;16.70;73.00
25352;DHT22;13304;48.464;8.712;2023-05-07T00:20:04;16.70;74.00
25352;DHT22;13304;48.464;8.712;2023-05-07T00:22:31;16.60;73.00
25352;DHT22;13304;48.464;8.712;2023-05-07T00:24:58;16.50;73.10
25352;DHT22;13304;48.464;8.712;2023-05-07T00:27:24;16.50;73.00
25352;DHT22;13304;48.464;8.712;2023-05-07T00:29:50;16.50;73.20
25352;DHT22;13304;48.464;8.712;2023-05-07T00:32:15;16.40;73.50
25352;DHT22;13304;48.464;8.712;2023-05-07T00:34:41;16.40;74.40
25352;DHT22;13304;48.464;8.712;2023-05-07T00:37:07;16.40;73.80
25352;DHT22;13304;48.464;8.712;2023-05-07T00:39:35;16.40;73.80
25352;DHT22;13304;48.464;8.712;2023-05-07T00:42:02;16.30;74.00
25352;DHT22;13304;48.464;8.712;2023-05-07T00:44:28;16.30;74.10
25352;DHT22;13304;48.464;8.712;2023-05-07T00:46:56;16.30;74.20
25352;DHT22;13304;48.464;8.712;2023-05-07T00:49:31;16.30;74.30
25352;DHT22;13304;48.464;8.712;2023-05-07T00:52:00;16.30;74.50
25352;DHT22;13304;48.464;8.712;2023-05-07T00:54:26;16.30;74.40
25352;DHT22;13304;48.464;8.712;2023-05-07T00:56:54;16.30;74.50
25352;DHT22;13304;48.464;8.712;2023-05-07T00:59:21;16.30;74.60
25352;DHT22;13304;48.464;8.712;2023-05-07T01:01:47;16.30;74.70
25352;DHT22;13304;48.464;8.712;2023-05-07T01:04:13;16.30;74.40
25352;DHT22;13304;48.464;8.712;2023-05-07T01:06:38;16.20;74.50
25352;DHT22;13304;48.464;8.712;2023-05-07T01:09:04;16.20;74.30
25352;DHT22;13304;48.464;8.712;2023-05-07T01:11:30;16.20;74.40
25352;DHT22;13304;48.464;8.712;2023-05-07T01:13:58;16.20;74.60
25352;DHT22;13304;48.464;8.712;2023-05-07T01:16:24;16.10;74.80
25352;DHT22;13304;48.464;8.712;2023-05-07T01:18:50;16.10;75.20
25352;DHT22;13304;48.464;8.712;2023-05-07T01:21:17;16.10;75.20
25352;DHT22;13304;48.464;8.712;2023-05-07T01:23:44;16.10;75.40
25352;DHT22;13304;48.464;8.712;2023-05-07T01:26:10;16.10;75.40
25352;DHT22;13304;48.464;8.712;2023-05-07T01:28:36;16.10;75.10
25352;DHT22;13304;48.464;8.712;2023-05-07T01:31:03;16.00;75.00
25352;DHT22;13304;48.464;8.712;2023-05-07T01:33:31;16.00;75.20
25352;DHT22;13304;48.464;8.712;2023-05-07T01:35:59;16.00;75.30
25352;DHT22;13304;48.464;8.712;2023-05-07T01:38:29;16.00;75.30
25352;DHT22;13304;48.464;8.712;2023-05-07T01:40:56;16.00;75.40
25352;DHT22;13304;48.464;8.712;2023-05-07T01:43:22;15.90;75.40
25352;DHT22;13304;48.464;8.712;2023-05-07T01:45:49;15.90;75.60
25352;DHT22;13304;48.464;8.712;2023-05-07T01:48:15;15.90;75.80
25352;DHT22;13304;48.464;8.712;2023-05-07T01:50:42;15.90;75.80
25352;DHT22;13304;48.464;8.712;2023-05-07T01:53:08;15.90;75.70
25352;DHT22;13304;48.464;8.712;2023-05-07T01:55:34;15.90;75.80
25352;DHT22;13304;48.464;8.712;2023-05-07T01:57:59;15.90;76.10
25352;DHT22;13304;48.464;8.712;2023-05-07T02:00:25;15.90;76.10
25352;DHT22;13304;48.464;8.712;2023-05-07T02:02:51;15.80;76.20
25352;DHT22;13304;48.464;8.712;2023-05-07T02:05:18;15.80;75.80
25352;DHT22;13304;48.464;8.712;2023-05-07T02:07:43;15.80;75.70
25352;DHT22;13304;48.464;8.712;2023-05-07T02:10:09;15.80;75.60
25352;DHT22;13304;48.464;8.712;2023-05-07T02:12:35;15.70;75.60
25352;DHT22;13304;48.464;8.712;2023-05-07T02:15:01;15.70;75.80
25352;DHT22;13304;48.464;8.712;2023-05-07T02:17:26;15.60;76.20
25352;DHT22;13304;48.464;8.712;2023-05-07T02:19:52;15.50;76.20
25352;DHT22;13304;48.464;8.712;2023-05-07T02:22:18;15.50;76.10
25352;DHT22;13304;48.464;8.712;2023-05-07T02:24:43;15.50;76.30
25352;DHT22;13304;48.464;8.712;2023-05-07T02:27:10;15.50;76.40
25352;DHT22;13304;48.464;8.712;2023-05-07T02:29:35;15.40;76.40
25352;DHT22;13304;48.464;8.712;2023-05-07T02:32:01;15.40;76.50
25352;DHT22;13304;48.464;8.712;2023-05-07T02:34:26;15.40;76.50
25352;DHT22;13304;48.464;8.712;2023-05-07T02:36:52;15.40;76.60
25352;DHT22;13304;48.464;8.712;2023-05-07T02:39:18;15.40;76.70
25352;DHT22;13304;48.464;8.712;2023-05-07T02:41:43;15.40;76.70
25352;DHT22;13304;48.464;8.712;2023-05-07T02:44:09;15.40;76.90
25352;DHT22;13304;48.464;8.712;2023-05-07T02:46:35;15.40;76.80
25352;DHT22;13304;48.464;8.712;2023-05-07T02:49:00;15.30;76.80
25352;DHT22;13304;48.464;8.712;2023-05-07T02:51:26;15.40;76.90
25352;DHT22;13304;48.464;8.712;2023-05-07T02:53:52;15.30;76.80
25352;DHT22;13304;48.464;8.712;2023-05-07T02:56:18;15.30;76.80
25352;DHT22;13304;48.464;8.712;2023-05-07T02:58:44;15.30;76.80
25352;DHT22;13304;48.464;8.712;2023-05-07T03:01:09;15.30;76.90
25352;DHT22;13304;48.464;8.712;2023-05-07T03:03:35;15.30;77.20
25352;DHT22;13304;48.464;8.712;2023-05-07T03:06:01;15.20;77.00
25352;DHT22;13304;48.464;8.712;2023-05-07T03:08:27;15.20;77.00
25352;DHT22;13304;48.464;8.712;2023-05-07T03:10:53;15.20;77.00
25352;DHT22;13304;48.464;8.712;2023-05-07T03:13:19;15.20;77.80
25352;DHT22;13304;48.464;8.712;2023-05-07T03:15:44;15.10;77.00
25352;DHT22;13304;48.464;8.712;2023-05-07T03:18:10;15.10;77.10
25352;DHT22;13304;48.464;8.712;2023-05-07T03:20:36;15.10;77.10
25352;DHT22;13304;48.464;8.712;2023-05-07T03:23:02;15.10;77.10
25352;DHT22;13304;48.464;8.712;2023-05-07T03:25:28;15.10;77.10
25352;DHT22;13304;48.464;8.712;2023-05-07T03:27:55;15.10;77.10
25352;DHT22;13304;48.464;8.712;2023-05-07T03:30:21;15.00;77.30
25352;DHT22;13304;48.464;8.712;2023-05-07T03:32:47;15.00;77.50
25352;DHT22;13304;48.464;8.712;2023-05-07T03:35:13;14.90;77.20
25352;DHT22;13304;48.464;8.712;2023-05-07T03:37:39;14.90;77.10
25352;DHT22;13304;48.464;8.712;2023-05-07T03:40:05;14.90;77.10
25352;DHT22;13304;48.464;8.712;2023-05-07T03:42:31;14.90;77.40
25352;DHT22;13304;48.464;8.712;2023-05-07T03:44:57;14.80;77.60
25352;DHT22;13304;48.464;8.712;2023-05-07T03:47:23;14.80;77.90
25352;DHT22;13304;48.464;8.712;2023-05-07T03:49:48;14.80;77.90
25352;DHT22;13304;48.464;8.712;2023-05-07T03:52:15;14.70;78.00
25352;DHT22;13304;48.464;8.712;2023-05-07T03:54:41;14.70;78.20
25352;DHT22;13304;48.464;8.712;2023-05-07T03:57:07;14.60;78.60
25352;DHT22;13304;48.464;8.712;2023-05-07T03:59:32;14.60;78.70
25352;DHT22;13304;48.464;8.712;2023-05-07T04:05:20;14.50;79.20
25352;DHT22;13304;48.464;8.712;2023-05-07T04:07:46;14.50;79.20
25352;DHT22;13304;48.464;8.712;2023-05-07T04:10:11;14.50;79.90
25352;DHT22;13304;48.464;8.712;2023-05-07T04:12:38;14.50;79.40
25352;DHT22;13304;48.464;8.712;2023-05-07T04:15:04;14.40;79.70
25352;DHT22;13304;48.464;8.712;2023-05-07T04:17:33;14.40;80.40
25352;DHT22;13304;48.464;8.712;2023-05-07T04:19:59;14.40;80.40
25352;DHT22;13304;48.464;8.712;2023-05-07T04:22:24;14.40;80.50
25352;DHT22;13304;48.464;8.712;2023-05-07T04:24:50;14.40;80.20
25352;DHT22;13304;48.464;8.712;2023-05-07T04:27:16;14.40;80.30
25352;DHT22;13304;48.464;8.712;2023-05-07T04:29:42;14.40;80.30
25352;DHT22;13304;48.464;8.712;2023-05-07T04:32:09;14.40;80.30
25352;DHT22;13304;48.464;8.712;2023-05-07T04:34:35;14.40;80.50
25352;DHT22;13304;48.464;8.712;2023-05-07T04:37:01;14.40;80.70
25352;DHT22;13304;48.464;8.712;2023-05-07T04:39:27;14.40;81.30
25352;DHT22;13304;48.464;8.712;2023-05-07T04:41:52;14.30;81.40
25352;DHT22;13304;48.464;8.712;2023-05-07T04:44:18;14.30;81.50
25352;DHT22;13304;48.464;8.712;2023-05-07T04:46:44;14.30;81.90
25352;DHT22;13304;48.464;8.712;2023-05-07T04:49:09;14.30;81.80
25352;DHT22;13304;48.464;8.712;2023-05-07T04:51:35;14.30;82.10
25352;DHT22;13304;48.464;8.712;2023-05-07T04:54:01;14.30;82.30
25352;DHT22;13304;48.464;8.712;2023-05-07T04:56:28;14.30;82.50
25352;DHT22;13304;48.464;8.712;2023-05-07T04:58:55;14.30;82.40
25352;DHT22;13304;48.464;8.712;2023-05-07T05:01:21;14.30;82.30
25352;DHT22;13304;48.464;8.712;2023-05-07T05:03:47;14.40;82.30
25352;DHT22;13304;48.464;8.712;2023-05-07T05:06:12;14.40;82.00
25352;DHT22;13304;48.464;8.712;2023-05-07T05:08:38;14.40;82.20
25352;DHT22;13304;48.464;8.712;2023-05-07T05:11:04;14.50;82.30
25352;DHT22;13304;48.464;8.712;2023-05-07T05:13:29;14.50;82.50
25352;DHT22;13304;48.464;8.712;2023-05-07T05:15:55;14.50;82.80
25352;DHT22;13304;48.464;8.712;2023-05-07T05:18:21;14.60;83.20
25352;DHT22;13304;48.464;8.712;2023-05-07T05:20:47;14.70;83.70
25352;DHT22;13304;48.464;8.712;2023-05-07T05:23:12;14.70;83.80
25352;DHT22;13304;48.464;8.712;2023-05-07T05:25:38;14.70;84.00
25352;DHT22;13304;48.464;8.712;2023-05-07T05:28:05;14.80;83.90
25352;DHT22;13304;48.464;8.712;2023-05-07T05:30:31;14.90;83.80
25352;DHT22;13304;48.464;8.712;2023-05-07T05:32:57;15.00;84.30
25352;DHT22;13304;48.464;8.712;2023-05-07T05:35:22;15.00;84.00
25352;DHT22;13304;48.464;8.712;2023-05-07T05:37:48;15.10;83.70
25352;DHT22;13304;48.464;8.712;2023-05-07T05:40:14;15.10;83.50
25352;DHT22;13304;48.464;8.712;2023-05-07T05:42:40;15.20;83.30
25352;DHT22;13304;48.464;8.712;2023-05-07T05:45:06;15.30;83.20
25352;DHT22;13304;48.464;8.712;2023-05-07T05:47:32;15.40;83.30
25352;DHT22;13304;48.464;8.712;2023-05-07T05:49:58;15.40;83.20
25352;DHT22;13304;48.464;8.712;2023-05-07T05:52:23;15.50;83.30
25352;DHT22;13304;48.464;8.712;2023-05-07T05:54:49;15.60;83.20
25352;DHT22;13304;48.464;8.712;2023-05-07T05:57:15;15.60;83.00
25352;DHT22;13304;48.464;8.712;2023-05-07T05:59:41;15.70;82.80
25352;DHT22;13304;48.464;8.712;2023-05-07T06:02:07;15.80;82.50
25352;DHT22;13304;48.464;8.712;2023-05-07T06:04:35;15.80;82.40
25352;DHT22;13304;48.464;8.712;2023-05-07T06:07:01;15.90;82.20
25352;DHT22;13304;48.464;8.712;2023-05-07T06:09:27;15.90;82.20
25352;DHT22;13304;48.464;8.712;2023-05-07T06:11:52;16.00;82.90
25352;DHT22;13304;48.464;8.712;2023-05-07T06:14:20;16.10;82.10
25352;DHT22;13304;48.464;8.712;2023-05-07T06:16:46;16.10;82.10
25352;DHT22;13304;48.464;8.712;2023-05-07T06:19:12;16.20;82.00
25352;DHT22;13304;48.464;8.712;2023-05-07T06:21:39;16.20;81.80
25352;DHT22;13304;48.464;8.712;2023-05-07T06:24:05;16.30;81.80
25352;DHT22;13304;48.464;8.712;2023-05-07T06:26:31;16.30;82.20
25352;DHT22;13304;48.464;8.712;2023-05-07T06:28:56;16.40;82.20
25352;DHT22;13304;48.464;8.712;2023-05-07T06:31:22;16.40;82.00
25352;DHT22;13304;48.464;8.712;2023-05-07T06:33:49;16.40;81.60
25352;DHT22;13304;48.464;8.712;2023-05-07T06:36:15;16.40;81.40
25352;DHT22;13304;48.464;8.712;2023-05-07T06:38:41;16.50;81.30
25352;DHT22;13304;48.464;8.712;2023-05-07T06:41:06;16.50;81.30
25352;DHT22;13304;48.464;8.712;2023-05-07T06:43:32;16.50;81.40
25352;DHT22;13304;48.464;8.712;2023-05-07T06:45:58;16.50;81.50
25352;DHT22;13304;48.464;8.712;2023-05-07T06:48:24;16.60;81.60
25352;DHT22;13304;48.464;8.712;2023-05-07T06:50:50;16.60;81.30
25352;DHT22;13304;48.464;8.712;2023-05-07T06:53:15;16.70;81.60
25352;DHT22;13304;48.464;8.712;2023-05-07T06:55:41;16.80;81.70
25352;DHT22;13304;48.464;8.712;2023-05-07T06:58:07;16.90;81.90
25352;DHT22;13304;48.464;8.712;2023-05-07T07:00:33;17.10;81.80
25352;DHT22;13304;48.464;8.712;2023-05-07T07:08:01;17.40;80.30
25352;DHT22;13304;48.464;8.712;2023-05-07T07:10:27;17.60;79.90
25352;DHT22;13304;48.464;8.712;2023-05-07T07:12:53;17.70;79.80
25352;DHT22;13304;48.464;8.712;2023-05-07T07:15:20;17.80;79.50
25352;DHT22;13304;48.464;8.712;2023-05-07T07:17:49;18.00;79.10
25352;DHT22;13304;48.464;8.712;2023-05-07T07:20:15;18.10;78.60
25352;DHT22;13304;48.464;8.712;2023-05-07T07:22:40;18.10;78.30
25352;DHT22;13304;48.464;8.712;2023-05-07T07:25:06;18.20;77.90
25352;DHT22;13304;48.464;8.712;2023-05-07T07:27:32;18.30;77.50
25352;DHT22;13304;48.464;8.712;2023-05-07T07:29:58;18.40;77.00
25352;DHT22;13304;48.464;8.712;2023-05-07T07:32:24;18.40;76.60
25352;DHT22;13304;48.464;8.712;2023-05-07T07:34:49;18.50;76.90
25352;DHT22;13304;48.464;8.712;2023-05-07T07:37:15;18.50;77.00
25352;DHT22;13304;48.464;8.712;2023-05-07T07:39:41;18.50;77.30
25352;DHT22;13304;48.464;8.712;2023-05-07T07:42:09;18.50;77.60
25352;DHT22;13304;48.464;8.712;2023-05-07T07:44:35;18.50;77.40
25352;DHT22;13304;48.464;8.712;2023-05-07T07:47:00;18.50;77.40
25352;DHT22;13304;48.464;8.712;2023-05-07T07:49:27;18.50;77.30
25352;DHT22;13304;48.464;8.712;2023-05-07T07:51:52;18.50;77.30
25352;DHT22;13304;48.464;8.712;2023-05-07T07:54:18;18.40;77.40
25352;DHT22;13304;48.464;8.712;2023-05-07T07:56:44;18.40;77.60
25352;DHT22;13304;48.464;8.712;2023-05-07T07:59:10;18.40;78.10
25352;DHT22;13304;48.464;8.712;2023-05-07T08:01:36;18.40;78.70
25352;DHT22;13304;48.464;8.712;2023-05-07T08:04:01;18.30;79.40
25352;DHT22;13304;48.464;8.712;2023-05-07T08:06:29;18.30;79.30
25352;DHT22;13304;48.464;8.712;2023-05-07T08:08:55;18.40;79.30
25352;DHT22;13304;48.464;8.712;2023-05-07T08:11:21;18.40;79.50
25352;DHT22;13304;48.464;8.712;2023-05-07T08:13:46;18.40;79.50
25352;DHT22;13304;48.464;8.712;2023-05-07T08:16:13;18.40;79.80
25352;DHT22;13304;48.464;8.712;2023-05-07T08:18:39;18.40;80.00
25352;DHT22;13304;48.464;8.712;2023-05-07T08:21:05;18.50;79.70
25352;DHT22;13304;48.464;8.712;2023-05-07T08:23:30;18.60;79.50
25352;DHT22;13304;48.464;8.712;2023-05-07T08:25:57;18.60;80.30
25352;DHT22;13304;48.464;8.712;2023-05-07T08:28:23;18.70;79.70
25352;DHT22;13304;48.464;8.712;2023-05-07T08:30:50;18.80;79.50
25352;DHT22;13304;48.464;8.712;2023-05-07T08:33:16;18.90;79.60
25352;DHT22;13304;48.464;8.712;2023-05-07T08:35:42;18.90;79.30
25352;DHT22;13304;48.464;8.712;2023-05-07T08:38:08;19.10;78.70
25352;DHT22;13304;48.464;8.712;2023-05-07T08:40:38;19.20;78.60
25352;DHT22;13304;48.464;8.712;2023-05-07T08:43:06;19.30;78.30
25352;DHT22;13304;48.464;8.712;2023-05-07T08:45:33;19.30;77.60
25352;DHT22;13304;48.464;8.712;2023-05-07T08:48:02;19.40;77.60
25352;DHT22;13304;48.464;8.712;2023-05-07T08:50:28;19.50;77.20
25352;DHT22;13304;48.464;8.712;2023-05-07T08:52:55;19.40;77.50
25352;DHT22;13304;48.464;8.712;2023-05-07T08:55:23;19.60;77.90
25352;DHT22;13304;48.464;8.712;2023-05-07T08:57:49;19.60;76.70
25352;DHT22;13304;48.464;8.712;2023-05-07T09:00:16;19.70;76.70
25352;DHT22;13304;48.464;8.712;2023-05-07T09:02:42;19.80;76.50
25352;DHT22;13304;48.464;8.712;2023-05-07T09:05:08;19.80;76.80
25352;DHT22;13304;48.464;8.712;2023-05-07T09:07:33;19.80;77.60
25352;DHT22;13304;48.464;8.712;2023-05-07T09:10:02;19.90;77.70
25352;DHT22;13304;48.464;8.712;2023-05-07T09:12:28;20.00;77.20
25352;DHT22;13304;48.464;8.712;2023-05-07T09:14:53;20.10;77.10
25352;DHT22;13304;48.464;8.712;2023-05-07T09:17:19;20.20;76.40
25352;DHT22;13304;48.464;8.712;2023-05-07T09:19:45;20.20;75.90
25352;DHT22;13304;48.464;8.712;2023-05-07T09:22:11;20.30;75.80
25352;DHT22;13304;48.464;8.712;2023-05-07T09:24:37;20.40;75.70
25352;DHT22;13304;48.464;8.712;2023-05-07T09:27:07;20.40;76.00
25352;DHT22;13304;48.464;8.712;2023-05-07T09:29:34;20.50;74.20
25352;DHT22;13304;48.464;8.712;2023-05-07T09:32:07;20.60;74.70
25352;DHT22;13304;48.464;8.712;2023-05-07T09:34:33;20.60;74.70
25352;DHT22;13304;48.464;8.712;2023-05-07T09:37:04;20.70;74.70
25352;DHT22;13304;48.464;8.712;2023-05-07T09:39:47;20.80;74.10
25352;DHT22;13304;48.464;8.712;2023-05-07T09:42:13;20.80;73.60
25352;DHT22;13304;48.464;8.712;2023-05-07T09:44:43;20.90;74.20
25352;DHT22;13304;48.464;8.712;2023-05-07T09:47:10;21.00;74.00
25352;DHT22;13304;48.464;8.712;2023-05-07T09:49:39;21.10;74.20
25352;DHT22;13304;48.464;8.712;2023-05-07T09:52:06;21.20;74.00
25352;DHT22;13304;48.464;8.712;2023-05-07T09:54:34;21.30;73.30
25352;DHT22;13304;48.464;8.712;2023-05-07T09:57:05;21.30;73.20
25352;DHT22;13304;48.464;8.712;2023-05-07T09:59:32;21.40;73.70
25352;DHT22;13304;48.464;8.712;2023-05-07T10:02:00;21.50;73.40
25352;DHT22;13304;48.464;8.712;2023-05-07T10:04:26;21.60;74.00
25352;DHT22;13304;48.464;8.712;2023-05-07T10:06:52;21.70;73.20
25352;DHT22;13304;48.464;8.712;2023-05-07T10:09:19;21.70;72.80
25352;DHT22;13304;48.464;8.712;2023-05-07T10:11:45;21.80;72.70
25352;DHT22;13304;48.464;8.712;2023-05-07T10:14:14;21.80;72.80
25352;DHT22;13304;48.464;8.712;2023-05-07T10:16:41;21.90;72.70
25352;DHT22;13304;48.464;8.712;2023-05-07T10:19:07;22.00;72.90
25352;DHT22;13304;48.464;8.712;2023-05-07T10:21:40;22.00;71.70
25352;DHT22;13304;48.464;8.712;2023-05-07T10:24:26;22.10;72.10
25352;DHT22;13304;48.464;8.712;2023-05-07T10:26:53;22.10;71.00
25352;DHT22;13304;48.464;8.712;2023-05-07T10:34:56;22.30;70.20
25352;DHT22;13304;48.464;8.712;2023-05-07T10:37:24;22.50;71.00
25352;DHT22;13304;48.464;8.712;2023-05-07T10:39:51;22.50;70.10
25352;DHT22;13304;48.464;8.712;2023-05-07T10:42:17;22.60;70.40
25352;DHT22;13304;48.464;8.712;2023-05-07T10:44:42;22.70;70.60
25352;DHT22;13304;48.464;8.712;2023-05-07T10:47:16;22.80;70.60
25352;DHT22;13304;48.464;8.712;2023-05-07T10:52:15;22.90;68.20
25352;DHT22;13304;48.464;8.712;2023-05-07T10:54:42;22.90;67.70
25352;DHT22;13304;48.464;8.712;2023-05-07T10:57:34;23.00;67.60
25352;DHT22;13304;48.464;8.712;2023-05-07T11:00:04;23.00;65.50
25352;DHT22;13304;48.464;8.712;2023-05-07T11:05:25;23.10;64.60
25352;DHT22;13304;48.464;8.712;2023-05-07T11:08:04;23.10;65.20
25352;DHT22;13304;48.464;8.712;2023-05-07T11:10:50;23.10;64.40
25352;DHT22;13304;48.464;8.712;2023-05-07T11:13:17;23.00;63.80
25352;DHT22;13304;48.464;8.712;2023-05-07T11:15:47;23.10;64.40
25352;DHT22;13304;48.464;8.712;2023-05-07T11:18:14;23.00;63.90
25352;DHT22;13304;48.464;8.712;2023-05-07T11:26:02;22.90;65.60
25352;DHT22;13304;48.464;8.712;2023-05-07T11:28:29;22.90;65.00
25352;DHT22;13304;48.464;8.712;2023-05-07T11:30:56;22.80;64.60
25352;DHT22;13304;48.464;8.712;2023-05-07T11:33:23;22.80;64.70
25352;DHT22;13304;48.464;8.712;2023-05-07T11:35:52;22.70;64.90
25352;DHT22;13304;48.464;8.712;2023-05-07T11:38:19;22.70;64.80
25352;DHT22;13304;48.464;8.712;2023-05-07T11:40:58;22.60;63.60
25352;DHT22;13304;48.464;8.712;2023-05-07T11:43:26;22.50;62.30
25352;DHT22;13304;48.464;8.712;2023-05-07T11:45:52;22.50;62.90
25352;DHT22;13304;48.464;8.712;2023-05-07T11:48:18;22.40;62.70
25352;DHT22;13304;48.464;8.712;2023-05-07T11:51:00;22.30;63.60
25352;DHT22;13304;48.464;8.712;2023-05-07T11:53:27;22.20;63.70
25352;DHT22;13304;48.464;8.712;2023-05-07T11:55:56;22.10;64.10
25352;DHT22;13304;48.464;8.712;2023-05-07T11:58:23;21.90;64.40
25352;DHT22;13304;48.464;8.712;2023-05-07T12:00:53;21.70;64.60
25352;DHT22;13304;48.464;8.712;2023-05-07T12:03:20;21.60;64.70
25352;DHT22;13304;48.464;8.712;2023-05-07T12:05:46;21.40;65.10
25352;DHT22;13304;48.464;8.712;2023-05-07T12:08:15;21.20;66.00
25352;DHT22;13304;48.464;8.712;2023-05-07T12:10:42;21.00;67.60
25352;DHT22;13304;48.464;8.712;2023-05-07T12:13:19;20.90;68.60
25352;DHT22;13304;48.464;8.712;2023-05-07T12:15:45;20.60;73.00
25352;DHT22;13304;48.464;8.712;2023-05-07T12:18:11;20.50;74.40
25352;DHT22;13304;48.464;8.712;2023-05-07T12:20:38;20.30;76.20
25352;DHT22;13304;48.464;8.712;2023-05-07T12:23:04;20.00;76.80
25352;DHT22;13304;48.464;8.712;2023-05-07T12:25:40;19.70;77.40
25352;DHT22;13304;48.464;8.712;2023-05-07T12:28:13;19.50;78.70
25352;DHT22;13304;48.464;8.712;2023-05-07T12:30:41;19.20;80.40
25352;DHT22;13304;48.464;8.712;2023-05-07T12:33:08;19.00;80.70
25352;DHT22;13304;48.464;8.712;2023-05-07T12:35:39;18.80;80.50
25352;DHT22;13304;48.464;8.712;2023-05-07T12:38:17;18.60;81.20
25352;DHT22;13304;48.464;8.712;2023-05-07T12:41:01;18.40;81.80
25352;DHT22;13304;48.464;8.712;2023-05-07T12:43:28;18.20;82.40
25352;DHT22;13304;48.464;8.712;2023-05-07T12:45:56;18.10;81.70
25352;DHT22;13304;48.464;8.712;2023-05-07T12:48:23;18.00;82.00
25352;DHT22;13304;48.464;8.712;2023-05-07T12:50:56;17.90;82.10
25352;DHT22;13304;48.464;8.712;2023-05-07T12:53:23;17.70;82.50
25352;DHT22;13304;48.464;8.712;2023-05-07T12:55:55;17.60;82.20
25352;DHT22;13304;48.464;8.712;2023-05-07T12:58:32;17.40;81.90
25352;DHT22;13304;48.464;8.712;2023-05-07T13:01:00;17.30;82.30
25352;DHT22;13304;48.464;8.712;2023-05-07T13:03:28;17.30;82.60
25352;DHT22;13304;48.464;8.712;2023-05-07T13:06:14;17.30;83.80
25352;DHT22;13304;48.464;8.712;2023-05-07T13:08:41;17.20;85.30
25352;DHT22;13304;48.464;8.712;2023-05-07T13:11:10;17.20;85.60
25352;DHT22;13304;48.464;8.712;2023-05-07T13:13:38;17.30;86.10
25352;DHT22;13304;48.464;8.712;2023-05-07T13:16:06;17.30;86.60
25352;DHT22;13304;48.464;8.712;2023-05-07T13:18:33;17.30;86.90
25352;DHT22;13304;48.464;8.712;2023-05-07T13:21:00;17.30;87.40
25352;DHT22;13304;48.464;8.712;2023-05-07T13:23:27;17.30;87.60
25352;DHT22;13304;48.464;8.712;2023-05-07T13:25:53;17.30;88.00
25352;DHT22;13304;48.464;8.712;2023-05-07T13:28:23;17.30;88.50
25352;DHT22;13304;48.464;8.712;2023-05-07T13:30:49;17.40;88.80
25352;DHT22;13304;48.464;8.712;2023-05-07T13:33:17;17.40;89.00
25352;DHT22;13304;48.464;8.712;2023-05-07T13:35:46;17.40;89.40
25352;DHT22;13304;48.464;8.712;2023-05-07T13:38:12;17.40;90.00
25352;DHT22;13304;48.464;8.712;2023-05-07T13:40:37;17.40;90.00
25352;DHT22;13304;48.464;8.712;2023-05-07T13:43:05;17.40;90.10
25352;DHT22;13304;48.464;8.712;2023-05-07T13:45:30;17.50;90.30
25352;DHT22;13304;48.464;8.712;2023-05-07T13:47:57;17.50;90.40
25352;DHT22;13304;48.464;8.712;2023-05-07T13:50:25;17.50;90.40
25352;DHT22;13304;48.464;8.712;2023-05-07T13:52:52;17.50;90.30
25352;DHT22;13304;48.464;8.712;2023-05-07T13:55:19;17.50;90.40
25352;DHT22;13304;48.464;8.712;2023-05-07T13:57:45;17.50;90.30
25352;DHT22;13304;48.464;8.712;2023-05-07T14:00:11;17.50;90.40
25352;DHT22;13304;48.464;8.712;2023-05-07T14:02:37;17.60;90.60
25352;DHT22;13304;48.464;8.712;2023-05-07T14:05:03;17.60;90.70
25352;DHT22;13304;48.464;8.712;2023-05-07T14:07:29;17.60;90.90
25352;DHT22;13304;48.464;8.712;2023-05-07T14:09:56;17.70;91.30
25352;DHT22;13304;48.464;8.712;2023-05-07T14:12:23;17.70;91.40
25352;DHT22;13304;48.464;8.712;2023-05-07T14:14:48;17.80;91.50
25352;DHT22;13304;48.464;8.712;2023-05-07T14:17:16;17.80;91.50
25352;DHT22;13304;48.464;8.712;2023-05-07T14:19:43;17.90;91.50
25352;DHT22;13304;48.464;8.712;2023-05-07T14:22:09;18.00;91.60
25352;DHT22;13304;48.464;8.712;2023-05-07T14:24:35;18.10;91.50
25352;DHT22;13304;48.464;8.712;2023-05-07T14:27:01;18.20;91.60
25352;DHT22;13304;48.464;8.712;2023-05-07T14:29:27;18.30;91.70
25352;DHT22;13304;48.464;8.712;2023-05-07T14:31:53;18.40;91.70
25352;DHT22;13304;48.464;8.712;2023-05-07T14:34:18;18.50;91.50
25352;DHT22;13304;48.464;8.712;2023-05-07T14:36:44;18.60;91.50
25352;DHT22;13304;48.464;8.712;2023-05-07T14:39:10;18.70;91.40
25352;DHT22;13304;48.464;8.712;2023-05-07T14:41:36;18.80;91.00
25352;DHT22;13304;48.464;8.712;2023-05-07T14:44:01;18.90;91.00
25352;DHT22;13304;48.464;8.712;2023-05-07T14:46:29;19.00;91.00
25352;DHT22;13304;48.464;8.712;2023-05-07T14:48:57;19.10;90.90
25352;DHT22;13304;48.464;8.712;2023-05-07T14:51:22;19.20;90.80
25352;DHT22;13304;48.464;8.712;2023-05-07T14:53:50;19.30;90.90
25352;DHT22;13304;48.464;8.712;2023-05-07T14:56:16;19.40;90.90
25352;DHT22;13304;48.464;8.712;2023-05-07T14:58:43;19.50;91.00
25352;DHT22;13304;48.464;8.712;2023-05-07T15:01:09;19.60;90.90
25352;DHT22;13304;48.464;8.712;2023-05-07T15:03:35;19.70;90.70
25352;DHT22;13304;48.464;8.712;2023-05-07T15:06:02;19.80;90.40
25352;DHT22;13304;48.464;8.712;2023-05-07T15:08:28;20.00;90.30
25352;DHT22;13304;48.464;8.712;2023-05-07T15:10:53;20.10;89.60
25352;DHT22;13304;48.464;8.712;2023-05-07T15:13:21;20.20;88.90
25352;DHT22;13304;48.464;8.712;2023-05-07T15:15:47;20.30;88.60
25352;DHT22;13304;48.464;8.712;2023-05-07T15:18:14;20.30;88.00
25352;DHT22;13304;48.464;8.712;2023-05-07T15:20:41;20.40;87.60
25352;DHT22;13304;48.464;8.712;2023-05-07T15:23:07;20.50;86.40
25352;DHT22;13304;48.464;8.712;2023-05-07T15:25:37;20.50;85.30
25352;DHT22;13304;48.464;8.712;2023-05-07T15:28:03;20.60;85.40
25352;DHT22;13304;48.464;8.712;2023-05-07T15:30:29;20.50;85.00
25352;DHT22;13304;48.464;8.712;2023-05-07T15:32:55;20.60;84.90
25352;DHT22;13304;48.464;8.712;2023-05-07T15:35:21;20.60;85.10
25352;DHT22;13304;48.464;8.712;2023-05-07T15:37:50;20.60;85.50
25352;DHT22;13304;48.464;8.712;2023-05-07T15:40:16;20.50;84.60
25352;DHT22;13304;48.464;8.712;2023-05-07T15:42:46;20.50;84.80
25352;DHT22;13304;48.464;8.712;2023-05-07T15:45:12;20.50;84.20
25352;DHT22;13304;48.464;8.712;2023-05-07T15:47:38;20.50;84.30
25352;DHT22;13304;48.464;8.712;2023-05-07T15:50:04;20.50;84.30
25352;DHT22;13304;48.464;8.712;2023-05-07T15:52:30;20.40;84.60